sensor_id;sensor_type;location;lat;lon;timestamp;P1;durP1;ratioP1;P2;durP2;ratioP2
68858;SDS011;55864;49.238;8.092;2023-04-03T00:00:31;5.30;;;2.07;;
68858;SDS011;55864;49.238;8.092;2023-04-03T00:02:31;5.73;;;2.10;;
68858;SDS011;55864;49.238;8.092;2023-04-03T00:04:32;5.97;;;2.23;;
68858;SDS011;55864;49.238;8.092;2023-04-03T00:06:33;5.93;;;2.23;;
68858;SDS011;55864;49.238;8.092;2023-04-03T00:08:33;5.67;;;2.00;;
68858;SDS011;55864;49.238;8.092;2023-04-03T00:10:34;4.97;;;1.90;;
68858;SDS011;55864;49.238;8.092;2023-04-03T00:12:37;7.70;;;2.07;;
68858;SDS011;55864;49.238;8.092;2023-04-03T00:14:37;5.27;;;1.90;;
68858;SDS011;55864;49.238;8.092;2023-04-03T00:16:38;5.57;;;2.10;;
68858;SDS011;55864;49.238;8.092;2023-04-03T00:18:39;5.23;;;2.07;;
68858;SDS011;55864;49.238;8.092;2023-04-03T00:20:40;7.57;;;2.20;;
68858;SDS011;55864;49.238;8.092;2023-04-03T00:22:41;6.00;;;2.00;;
68858;SDS011;55864;49.238;8.092;2023-04-03T00:24:41;5.67;;;2.17;;
68858;SDS011;55864;49.238;8.092;2023-04-03T00:26:42;5.07;;;2.03;;
68858;SDS011;55864;49.238;8.092;2023-04-03T00:28:44;5.13;;;2.00;;
68858;SDS011;55864;49.238;8.092;2023-04-03T00:30:44;4.60;;;1.80;;
68858;SDS011;55864;49.238;8.092;2023-04-03T00:32:46;6.70;;;2.53;;
68858;SDS011;55864;49.238;8.092;2023-04-03T00:34:47;5.63;;;2.37;;
68858;SDS011;55864;49.238;8.092;2023-04-03T00:36:48;6.80;;;2.20;;
68858;SDS011;55864;49.238;8.092;2023-04-03T00:38:48;5.83;;;2.03;;
68858;SDS011;55864;49.238;8.092;2023-04-03T00:40:49;6.77;;;2.37;;
68858;SDS011;55864;49.238;8.092;2023-04-03T00:42:51;4.83;;;2.10;;
68858;SDS011;55864;49.238;8.092;2023-04-03T00:47:30;5.78;;;2.15;;
68858;SDS011;55864;49.238;8.092;2023-04-03T00:49:31;7.10;;;2.15;;
68858;SDS011;55864;49.238;8.092;2023-04-03T00:51:32;7.93;;;2.40;;
68858;SDS011;55864;49.238;8.092;2023-04-03T00:53:33;5.27;;;2.20;;
68858;SDS011;55864;49.238;8.092;2023-04-03T00:55:37;6.30;;;2.20;;
68858;SDS011;55864;49.238;8.092;2023-04-03T00:57:38;5.20;;;2.20;;
68858;SDS011;55864;49.238;8.092;2023-04-03T00:59:39;5.77;;;2.10;;
68858;SDS011;55864;49.238;8.092;2023-04-03T01:01:43;5.30;;;2.10;;
68858;SDS011;55864;49.238;8.092;2023-04-03T01:03:45;5.33;;;1.87;;
68858;SDS011;55864;49.238;8.092;2023-04-03T01:05:46;5.40;;;1.90;;
68858;SDS011;55864;49.238;8.092;2023-04-03T01:07:46;6.10;;;2.10;;
68858;SDS011;55864;49.238;8.092;2023-04-03T01:09:49;6.53;;;2.20;;
68858;SDS011;55864;49.238;8.092;2023-04-03T01:11:52;5.63;;;2.23;;
68858;SDS011;55864;49.238;8.092;2023-04-03T01:13:54;5.80;;;2.07;;
68858;SDS011;55864;49.238;8.092;2023-04-03T01:15:54;7.40;;;2.10;;
68858;SDS011;55864;49.238;8.092;2023-04-03T01:17:56;8.67;;;2.40;;
68858;SDS011;55864;49.238;8.092;2023-04-03T01:20:09;7.05;;;2.45;;
68858;SDS011;55864;49.238;8.092;2023-04-03T01:22:38;8.30;;;2.80;;
68858;SDS011;55864;49.238;8.092;2023-04-03T01:24:42;5.47;;;2.20;;
68858;SDS011;55864;49.238;8.092;2023-04-03T01:26:44;5.40;;;2.10;;
68858;SDS011;55864;49.238;8.092;2023-04-03T01:28:45;5.67;;;1.97;;
68858;SDS011;55864;49.238;8.092;2023-04-03T01:30:46;5.10;;;2.10;;
68858;SDS011;55864;49.238;8.092;2023-04-03T01:32:52;5.83;;;2.30;;
68858;SDS011;55864;49.238;8.092;2023-04-03T01:34:53;6.70;;;2.00;;
68858;SDS011;55864;49.238;8.092;2023-04-03T01:36:54;6.60;;;2.10;;
68858;SDS011;55864;49.238;8.092;2023-04-03T01:38:56;6.27;;;2.10;;
68858;SDS011;55864;49.238;8.092;2023-04-03T01:40:57;4.23;;;1.80;;
68858;SDS011;55864;49.238;8.092;2023-04-03T01:42:58;4.80;;;2.00;;
68858;SDS011;55864;49.238;8.092;2023-04-03T01:44:59;7.40;;;2.30;;
68858;SDS011;55864;49.238;8.092;2023-04-03T01:47:00;5.60;;;2.30;;
68858;SDS011;55864;49.238;8.092;2023-04-03T01:49:03;6.17;;;2.10;;
68858;SDS011;55864;49.238;8.092;2023-04-03T01:51:04;5.80;;;2.10;;
68858;SDS011;55864;49.238;8.092;2023-04-03T01:53:05;5.90;;;2.00;;
68858;SDS011;55864;49.238;8.092;2023-04-03T01:55:06;8.03;;;2.23;;
68858;SDS011;55864;49.238;8.092;2023-04-03T01:57:07;5.90;;;2.20;;
68858;SDS011;55864;49.238;8.092;2023-04-03T01:59:09;6.90;;;2.30;;
68858;SDS011;55864;49.238;8.092;2023-04-03T02:01:09;6.60;;;2.10;;
68858;SDS011;55864;49.238;8.092;2023-04-03T02:03:10;6.87;;;2.30;;
68858;SDS011;55864;49.238;8.092;2023-04-03T02:05:12;5.67;;;2.20;;
68858;SDS011;55864;49.238;8.092;2023-04-03T02:07:13;5.90;;;2.27;;
68858;SDS011;55864;49.238;8.092;2023-04-03T02:09:14;6.63;;;2.30;;
68858;SDS011;55864;49.238;8.092;2023-04-03T02:11:14;5.77;;;2.30;;
68858;SDS011;55864;49.238;8.092;2023-04-03T02:13:15;5.77;;;2.10;;
68858;SDS011;55864;49.238;8.092;2023-04-03T02:15:16;5.03;;;2.10;;
68858;SDS011;55864;49.238;8.092;2023-04-03T02:17:17;6.53;;;2.10;;
68858;SDS011;55864;49.238;8.092;2023-04-03T02:19:18;6.03;;;2.10;;
68858;SDS011;55864;49.238;8.092;2023-04-03T02:21:20;4.87;;;2.13;;
68858;SDS011;55864;49.238;8.092;2023-04-03T02:23:21;6.82;;;2.28;;
68858;SDS011;55864;49.238;8.092;2023-04-03T02:25:22;6.77;;;2.17;;
68858;SDS011;55864;49.238;8.092;2023-04-03T02:27:23;6.03;;;2.43;;
68858;SDS011;55864;49.238;8.092;2023-04-03T02:29:23;5.63;;;2.10;;
68858;SDS011;55864;49.238;8.092;2023-04-03T02:31:25;6.97;;;2.30;;
68858;SDS011;55864;49.238;8.092;2023-04-03T02:33:25;6.40;;;2.40;;
68858;SDS011;55864;49.238;8.092;2023-04-03T02:35:27;7.23;;;2.53;;
68858;SDS011;55864;49.238;8.092;2023-04-03T02:37:31;5.47;;;2.60;;
68858;SDS011;55864;49.238;8.092;2023-04-03T02:39:32;5.77;;;2.40;;
68858;SDS011;55864;49.238;8.092;2023-04-03T02:41:34;8.50;;;2.77;;
68858;SDS011;55864;49.238;8.092;2023-04-03T02:43:35;7.23;;;2.60;;
68858;SDS011;55864;49.238;8.092;2023-04-03T02:45:37;6.90;;;2.47;;
68858;SDS011;55864;49.238;8.092;2023-04-03T02:47:38;8.40;;;2.70;;
68858;SDS011;55864;49.238;8.092;2023-04-03T02:49:38;5.43;;;2.33;;
68858;SDS011;55864;49.238;8.092;2023-04-03T02:51:39;5.87;;;2.63;;
68858;SDS011;55864;49.238;8.092;2023-04-03T02:53:41;8.73;;;2.60;;
68858;SDS011;55864;49.238;8.092;2023-04-03T02:55:47;8.40;;;2.90;;
68858;SDS011;55864;49.238;8.092;2023-04-03T02:57:48;6.33;;;2.50;;
68858;SDS011;55864;49.238;8.092;2023-04-03T02:59:49;6.63;;;2.87;;
68858;SDS011;55864;49.238;8.092;2023-04-03T03:01:49;7.13;;;2.70;;
68858;SDS011;55864;49.238;8.092;2023-04-03T03:03:50;7.43;;;2.73;;
68858;SDS011;55864;49.238;8.092;2023-04-03T03:06:00;6.37;;;2.87;;
68858;SDS011;55864;49.238;8.092;2023-04-03T03:08:01;7.63;;;3.10;;
68858;SDS011;55864;49.238;8.092;2023-04-03T03:10:03;8.43;;;2.60;;
68858;SDS011;55864;49.238;8.092;2023-04-03T03:12:04;6.57;;;2.80;;
68858;SDS011;55864;49.238;8.092;2023-04-03T03:14:05;7.30;;;2.77;;
68858;SDS011;55864;49.238;8.092;2023-04-03T03:16:07;6.97;;;3.00;;
68858;SDS011;55864;49.238;8.092;2023-04-03T03:18:08;6.07;;;2.60;;
68858;SDS011;55864;49.238;8.092;2023-04-03T03:20:09;7.37;;;2.63;;
68858;SDS011;55864;49.238;8.092;2023-04-03T03:22:11;5.83;;;2.60;;
68858;SDS011;55864;49.238;8.092;2023-04-03T03:24:11;6.13;;;2.60;;
68858;SDS011;55864;49.238;8.092;2023-04-03T03:26:14;6.23;;;2.80;;
68858;SDS011;55864;49.238;8.092;2023-04-03T03:28:14;6.90;;;2.70;;
68858;SDS011;55864;49.238;8.092;2023-04-03T03:30:15;6.17;;;2.60;;
68858;SDS011;55864;49.238;8.092;2023-04-03T03:32:15;5.33;;;2.40;;
68858;SDS011;55864;49.238;8.092;2023-04-03T03:34:16;7.13;;;2.70;;
68858;SDS011;55864;49.238;8.092;2023-04-03T03:36:17;8.20;;;2.90;;
68858;SDS011;55864;49.238;8.092;2023-04-03T03:38:18;6.57;;;2.23;;
68858;SDS011;55864;49.238;8.092;2023-04-03T03:40:19;6.73;;;2.70;;
68858;SDS011;55864;49.238;8.092;2023-04-03T03:42:21;7.27;;;2.50;;
68858;SDS011;55864;49.238;8.092;2023-04-03T03:44:23;8.02;;;2.75;;
68858;SDS011;55864;49.238;8.092;2023-04-03T03:46:24;5.63;;;2.70;;
68858;SDS011;55864;49.238;8.092;2023-04-03T03:48:24;7.17;;;2.50;;
68858;SDS011;55864;49.238;8.092;2023-04-03T03:50:25;5.90;;;2.60;;
68858;SDS011;55864;49.238;8.092;2023-04-03T03:52:26;6.30;;;2.87;;
68858;SDS011;55864;49.238;8.092;2023-04-03T03:54:28;5.83;;;2.40;;
68858;SDS011;55864;49.238;8.092;2023-04-03T03:56:28;7.90;;;2.73;;
68858;SDS011;55864;49.238;8.092;2023-04-03T03:58:30;7.33;;;2.70;;
68858;SDS011;55864;49.238;8.092;2023-04-03T04:00:31;7.40;;;3.00;;
68858;SDS011;55864;49.238;8.092;2023-04-03T04:02:32;6.07;;;2.57;;
68858;SDS011;55864;49.238;8.092;2023-04-03T04:04:33;5.63;;;2.50;;
68858;SDS011;55864;49.238;8.092;2023-04-03T04:06:33;7.17;;;2.70;;
68858;SDS011;55864;49.238;8.092;2023-04-03T04:08:38;5.60;;;2.80;;
68858;SDS011;55864;49.238;8.092;2023-04-03T04:10:40;6.13;;;2.30;;
68858;SDS011;55864;49.238;8.092;2023-04-03T04:12:42;10.33;;;2.93;;
68858;SDS011;55864;49.238;8.092;2023-04-03T04:14:44;5.83;;;2.37;;
68858;SDS011;55864;49.238;8.092;2023-04-03T04:16:45;6.00;;;3.00;;
68858;SDS011;55864;49.238;8.092;2023-04-03T04:18:50;7.07;;;2.67;;
68858;SDS011;55864;49.238;8.092;2023-04-03T04:20:52;8.00;;;2.80;;
68858;SDS011;55864;49.238;8.092;2023-04-03T04:22:52;7.77;;;2.73;;
68858;SDS011;55864;49.238;8.092;2023-04-03T04:24:53;6.70;;;2.70;;
68858;SDS011;55864;49.238;8.092;2023-04-03T04:26:54;7.50;;;2.97;;
68858;SDS011;55864;49.238;8.092;2023-04-03T04:28:55;10.53;;;2.53;;
68858;SDS011;55864;49.238;8.092;2023-04-03T04:30:57;8.77;;;2.70;;
68858;SDS011;55864;49.238;8.092;2023-04-03T04:33:00;6.67;;;2.83;;
68858;SDS011;55864;49.238;8.092;2023-04-03T04:35:01;7.30;;;2.40;;
68858;SDS011;55864;49.238;8.092;2023-04-03T04:37:03;8.30;;;2.70;;
68858;SDS011;55864;49.238;8.092;2023-04-03T04:39:04;5.50;;;2.53;;
68858;SDS011;55864;49.238;8.092;2023-04-03T04:41:05;6.07;;;2.53;;
68858;SDS011;55864;49.238;8.092;2023-04-03T04:43:06;7.10;;;2.87;;
68858;SDS011;55864;49.238;8.092;2023-04-03T04:45:07;6.73;;;2.90;;
68858;SDS011;55864;49.238;8.092;2023-04-03T04:47:10;8.20;;;2.80;;
68858;SDS011;55864;49.238;8.092;2023-04-03T04:49:11;6.13;;;2.70;;
68858;SDS011;55864;49.238;8.092;2023-04-03T04:51:12;7.43;;;2.67;;
68858;SDS011;55864;49.238;8.092;2023-04-03T04:53:13;5.97;;;2.70;;
68858;SDS011;55864;49.238;8.092;2023-04-03T04:55:13;6.90;;;2.60;;
68858;SDS011;55864;49.238;8.092;2023-04-03T04:57:14;6.97;;;2.77;;
68858;SDS011;55864;49.238;8.092;2023-04-03T04:59:15;6.77;;;2.50;;
68858;SDS011;55864;49.238;8.092;2023-04-03T05:01:16;6.23;;;2.70;;
68858;SDS011;55864;49.238;8.092;2023-04-03T05:03:27;6.97;;;2.70;;
68858;SDS011;55864;49.238;8.092;2023-04-03T05:05:28;5.77;;;2.80;;
68858;SDS011;55864;49.238;8.092;2023-04-03T05:07:28;7.97;;;2.80;;
68858;SDS011;55864;49.238;8.092;2023-04-03T05:09:31;7.70;;;2.90;;
68858;SDS011;55864;49.238;8.092;2023-04-03T05:11:31;6.63;;;2.70;;
68858;SDS011;55864;49.238;8.092;2023-04-03T05:13:32;6.83;;;3.00;;
68858;SDS011;55864;49.238;8.092;2023-04-03T05:15:33;6.77;;;2.80;;
68858;SDS011;55864;49.238;8.092;2023-04-03T05:17:34;7.97;;;3.10;;
68858;SDS011;55864;49.238;8.092;2023-04-03T05:19:37;10.33;;;4.17;;
68858;SDS011;55864;49.238;8.092;2023-04-03T05:21:39;14.83;;;6.10;;
68858;SDS011;55864;49.238;8.092;2023-04-03T05:23:44;10.87;;;4.57;;
68858;SDS011;55864;49.238;8.092;2023-04-03T05:25:45;7.63;;;3.70;;
68858;SDS011;55864;49.238;8.092;2023-04-03T05:27:46;10.90;;;5.40;;
68858;SDS011;55864;49.238;8.092;2023-04-03T05:29:47;8.73;;;4.20;;
68858;SDS011;55864;49.238;8.092;2023-04-03T05:31:53;11.70;;;4.10;;
68858;SDS011;55864;49.238;8.092;2023-04-03T05:33:54;8.63;;;3.87;;
68858;SDS011;55864;49.238;8.092;2023-04-03T05:35:56;9.73;;;4.40;;
68858;SDS011;55864;49.238;8.092;2023-04-03T05:38:02;9.50;;;4.07;;
68858;SDS011;55864;49.238;8.092;2023-04-03T05:40:05;10.60;;;5.00;;
68858;SDS011;55864;49.238;8.092;2023-04-03T05:42:07;10.98;;;4.80;;
68858;SDS011;55864;49.238;8.092;2023-04-03T05:44:08;12.93;;;5.27;;
68858;SDS011;55864;49.238;8.092;2023-04-03T05:46:10;11.47;;;4.80;;
68858;SDS011;55864;49.238;8.092;2023-04-03T05:48:12;11.27;;;5.68;;
68858;SDS011;55864;49.238;8.092;2023-04-03T05:50:13;13.80;;;5.10;;
68858;SDS011;55864;49.238;8.092;2023-04-03T05:52:18;9.37;;;4.07;;
68858;SDS011;55864;49.238;8.092;2023-04-03T05:54:23;10.23;;;4.07;;
68858;SDS011;55864;49.238;8.092;2023-04-03T05:56:28;9.27;;;4.53;;
68858;SDS011;55864;49.238;8.092;2023-04-03T05:58:29;8.77;;;3.90;;
68858;SDS011;55864;49.238;8.092;2023-04-03T06:00:30;7.43;;;3.50;;
68858;SDS011;55864;49.238;8.092;2023-04-03T06:02:35;7.23;;;3.30;;
68858;SDS011;55864;49.238;8.092;2023-04-03T06:04:36;7.57;;;3.10;;
68858;SDS011;55864;49.238;8.092;2023-04-03T06:06:43;8.77;;;3.23;;
68858;SDS011;55864;49.238;8.092;2023-04-03T06:08:46;6.53;;;3.07;;
68858;SDS011;55864;49.238;8.092;2023-04-03T06:10:47;7.63;;;3.40;;
68858;SDS011;55864;49.238;8.092;2023-04-03T06:12:47;5.67;;;2.73;;
68858;SDS011;55864;49.238;8.092;2023-04-03T06:14:48;7.00;;;3.10;;
68858;SDS011;55864;49.238;8.092;2023-04-03T06:16:49;8.33;;;2.97;;
68858;SDS011;55864;49.238;8.092;2023-04-03T06:18:49;6.03;;;3.23;;
68858;SDS011;55864;49.238;8.092;2023-04-03T06:20:50;6.93;;;3.00;;
68858;SDS011;55864;49.238;8.092;2023-04-03T06:22:51;8.27;;;3.20;;
68858;SDS011;55864;49.238;8.092;2023-04-03T06:24:53;6.70;;;3.10;;
68858;SDS011;55864;49.238;8.092;2023-04-03T06:26:53;9.40;;;3.33;;
68858;SDS011;55864;49.238;8.092;2023-04-03T06:28:54;9.83;;;4.40;;
68858;SDS011;55864;49.238;8.092;2023-04-03T06:30:54;9.27;;;4.10;;
68858;SDS011;55864;49.238;8.092;2023-04-03T06:32:55;10.87;;;4.60;;
68858;SDS011;55864;49.238;8.092;2023-04-03T06:34:55;14.47;;;5.60;;
68858;SDS011;55864;49.238;8.092;2023-04-03T06:36:56;15.60;;;6.70;;
68858;SDS011;55864;49.238;8.092;2023-04-03T06:38:56;17.93;;;7.47;;
68858;SDS011;55864;49.238;8.092;2023-04-03T06:40:58;25.37;;;8.47;;
68858;SDS011;55864;49.238;8.092;2023-04-03T06:42:59;23.97;;;8.83;;
68858;SDS011;55864;49.238;8.092;2023-04-03T06:44:59;22.47;;;8.60;;
68858;SDS011;55864;49.238;8.092;2023-04-03T06:47:00;31.73;;;11.17;;
68858;SDS011;55864;49.238;8.092;2023-04-03T06:49:01;16.77;;;6.20;;
68858;SDS011;55864;49.238;8.092;2023-04-03T06:51:01;9.97;;;4.37;;
68858;SDS011;55864;49.238;8.092;2023-04-03T06:53:02;9.27;;;3.50;;
68858;SDS011;55864;49.238;8.092;2023-04-03T06:55:04;10.07;;;3.47;;
68858;SDS011;55864;49.238;8.092;2023-04-03T06:57:07;7.70;;;3.03;;
68858;SDS011;55864;49.238;8.092;2023-04-03T06:59:09;7.23;;;2.83;;
68858;SDS011;55864;49.238;8.092;2023-04-03T07:01:11;9.13;;;3.40;;
68858;SDS011;55864;49.238;8.092;2023-04-03T07:03:12;9.20;;;3.57;;
68858;SDS011;55864;49.238;8.092;2023-04-03T07:05:13;8.97;;;3.23;;
68858;SDS011;55864;49.238;8.092;2023-04-03T07:07:14;7.80;;;3.00;;
68858;SDS011;55864;49.238;8.092;2023-04-03T07:09:14;8.37;;;3.40;;
68858;SDS011;55864;49.238;8.092;2023-04-03T07:11:15;9.87;;;2.80;;
68858;SDS011;55864;49.238;8.092;2023-04-03T07:13:17;7.43;;;2.97;;
68858;SDS011;55864;49.238;8.092;2023-04-03T07:15:18;7.70;;;2.80;;
68858;SDS011;55864;49.238;8.092;2023-04-03T07:17:18;6.93;;;3.07;;
68858;SDS011;55864;49.238;8.092;2023-04-03T07:19:19;9.93;;;3.67;;
68858;SDS011;55864;49.238;8.092;2023-04-03T07:21:20;8.90;;;2.93;;
68858;SDS011;55864;49.238;8.092;2023-04-03T07:23:21;7.13;;;3.10;;
68858;SDS011;55864;49.238;8.092;2023-04-03T07:25:22;9.17;;;2.80;;
68858;SDS011;55864;49.238;8.092;2023-04-03T07:27:22;8.57;;;3.63;;
68858;SDS011;55864;49.238;8.092;2023-04-03T07:29:25;8.47;;;3.47;;
68858;SDS011;55864;49.238;8.092;2023-04-03T07:31:25;8.73;;;3.20;;
68858;SDS011;55864;49.238;8.092;2023-04-03T07:33:26;9.20;;;3.13;;
68858;SDS011;55864;49.238;8.092;2023-04-03T07:35:27;8.73;;;3.33;;
68858;SDS011;55864;49.238;8.092;2023-04-03T07:37:27;8.53;;;3.30;;
68858;SDS011;55864;49.238;8.092;2023-04-03T07:39:28;8.07;;;2.90;;
68858;SDS011;55864;49.238;8.092;2023-04-03T07:41:29;8.53;;;2.90;;
68858;SDS011;55864;49.238;8.092;2023-04-03T07:43:29;7.30;;;3.30;;
68858;SDS011;55864;49.238;8.092;2023-04-03T07:45:31;7.50;;;3.10;;
68858;SDS011;55864;49.238;8.092;2023-04-03T07:47:32;7.27;;;3.30;;
68858;SDS011;55864;49.238;8.092;2023-04-03T07:49:32;8.70;;;3.30;;
68858;SDS011;55864;49.238;8.092;2023-04-03T07:51:33;8.93;;;3.40;;
68858;SDS011;55864;49.238;8.092;2023-04-03T07:53:34;8.00;;;3.23;;
68858;SDS011;55864;49.238;8.092;2023-04-03T07:55:34;7.23;;;3.30;;
68858;SDS011;55864;49.238;8.092;2023-04-03T07:57:35;7.53;;;3.00;;
68858;SDS011;55864;49.238;8.092;2023-04-03T07:59:36;8.57;;;3.90;;
68858;SDS011;55864;49.238;8.092;2023-04-03T08:01:38;11.43;;;3.97;;
68858;SDS011;55864;49.238;8.092;2023-04-03T08:03:39;9.57;;;3.90;;
68858;SDS011;55864;49.238;8.092;2023-04-03T08:05:40;8.10;;;3.83;;
68858;SDS011;55864;49.238;8.092;2023-04-03T08:07:42;10.27;;;3.97;;
68858;SDS011;55864;49.238;8.092;2023-04-03T08:09:42;9.00;;;4.00;;
68858;SDS011;55864;49.238;8.092;2023-04-03T08:11:43;8.30;;;3.13;;
68858;SDS011;55864;49.238;8.092;2023-04-03T08:13:43;10.83;;;3.30;;
68858;SDS011;55864;49.238;8.092;2023-04-03T08:15:44;8.20;;;3.47;;
68858;SDS011;55864;49.238;8.092;2023-04-03T08:17:46;10.37;;;2.80;;
68858;SDS011;55864;49.238;8.092;2023-04-03T08:19:47;9.53;;;3.33;;
68858;SDS011;55864;49.238;8.092;2023-04-03T08:21:47;11.40;;;2.87;;
68858;SDS011;55864;49.238;8.092;2023-04-03T08:23:49;9.97;;;3.00;;
68858;SDS011;55864;49.238;8.092;2023-04-03T08:25:50;8.10;;;2.77;;
68858;SDS011;55864;49.238;8.092;2023-04-03T08:27:50;8.90;;;3.40;;
68858;SDS011;55864;49.238;8.092;2023-04-03T08:29:51;6.53;;;2.60;;
68858;SDS011;55864;49.238;8.092;2023-04-03T08:31:51;7.60;;;2.60;;
68858;SDS011;55864;49.238;8.092;2023-04-03T08:33:54;6.87;;;2.70;;
68858;SDS011;55864;49.238;8.092;2023-04-03T08:35:56;11.83;;;2.73;;
68858;SDS011;55864;49.238;8.092;2023-04-03T08:37:57;7.43;;;2.80;;
68858;SDS011;55864;49.238;8.092;2023-04-03T08:39:58;9.97;;;2.93;;
68858;SDS011;55864;49.238;8.092;2023-04-03T08:41:58;8.07;;;2.60;;
68858;SDS011;55864;49.238;8.092;2023-04-03T08:44:14;6.37;;;2.50;;
68858;SDS011;55864;49.238;8.092;2023-04-03T08:46:17;7.43;;;2.30;;
68858;SDS011;55864;49.238;8.092;2023-04-03T08:48:23;6.33;;;1.90;;
68858;SDS011;55864;49.238;8.092;2023-04-03T08:50:30;7.57;;;2.60;;
68858;SDS011;55864;49.238;8.092;2023-04-03T08:52:36;7.40;;;2.10;;
68858;SDS011;55864;49.238;8.092;2023-04-03T08:56:48;6.17;;;2.07;;
68858;SDS011;55864;49.238;8.092;2023-04-03T08:58:50;6.83;;;2.30;;
68858;SDS011;55864;49.238;8.092;2023-04-03T09:00:56;7.87;;;2.30;;
68858;SDS011;55864;49.238;8.092;2023-04-03T09:02:59;6.37;;;1.90;;
68858;SDS011;55864;49.238;8.092;2023-04-03T09:05:01;6.10;;;1.80;;
68858;SDS011;55864;49.238;8.092;2023-04-03T09:07:08;8.57;;;2.20;;
68858;SDS011;55864;49.238;8.092;2023-04-03T09:09:21;5.00;;;1.73;;
68858;SDS011;55864;49.238;8.092;2023-04-03T09:13:39;5.77;;;2.10;;
68858;SDS011;55864;49.238;8.092;2023-04-03T09:15:46;5.17;;;1.70;;
68858;SDS011;55864;49.238;8.092;2023-04-03T09:17:50;9.77;;;2.97;;
68858;SDS011;55864;49.238;8.092;2023-04-03T09:19:59;5.00;;;1.80;;
68858;SDS011;55864;49.238;8.092;2023-04-03T09:22:13;8.37;;;2.43;;
68858;SDS011;55864;49.238;8.092;2023-04-03T09:24:17;6.03;;;1.90;;
68858;SDS011;55864;49.238;8.092;2023-04-03T09:26:19;5.43;;;1.80;;
68858;SDS011;55864;49.238;8.092;2023-04-03T09:28:24;4.40;;;1.70;;
68858;SDS011;55864;49.238;8.092;2023-04-03T09:30:25;5.47;;;1.80;;
68858;SDS011;55864;49.238;8.092;2023-04-03T09:32:27;4.87;;;1.63;;
68858;SDS011;55864;49.238;8.092;2023-04-03T09:34:30;5.33;;;1.60;;
68858;SDS011;55864;49.238;8.092;2023-04-03T09:36:37;4.93;;;1.80;;
68858;SDS011;55864;49.238;8.092;2023-04-03T09:38:40;4.00;;;1.50;;
68858;SDS011;55864;49.238;8.092;2023-04-03T09:40:41;7.07;;;2.00;;
68858;SDS011;55864;49.238;8.092;2023-04-03T09:42:42;6.27;;;1.80;;
68858;SDS011;55864;49.238;8.092;2023-04-03T09:44:44;7.03;;;1.70;;
68858;SDS011;55864;49.238;8.092;2023-04-03T09:46:54;7.27;;;1.90;;
68858;SDS011;55864;49.238;8.092;2023-04-03T09:48:55;4.77;;;1.77;;
68858;SDS011;55864;49.238;8.092;2023-04-03T09:50:58;5.43;;;1.80;;
68858;SDS011;55864;49.238;8.092;2023-04-03T09:53:04;6.15;;;1.95;;
68858;SDS011;55864;49.238;8.092;2023-04-03T09:55:08;5.60;;;1.77;;
68858;SDS011;55864;49.238;8.092;2023-04-03T09:57:14;5.03;;;1.70;;
68858;SDS011;55864;49.238;8.092;2023-04-03T09:59:15;6.60;;;1.73;;
68858;SDS011;55864;49.238;8.092;2023-04-03T10:01:23;5.30;;;1.60;;
68858;SDS011;55864;49.238;8.092;2023-04-03T10:03:29;4.37;;;1.40;;
68858;SDS011;55864;49.238;8.092;2023-04-03T10:05:32;8.87;;;1.70;;
68858;SDS011;55864;49.238;8.092;2023-04-03T10:07:34;5.10;;;1.75;;
68858;SDS011;55864;49.238;8.092;2023-04-03T10:09:36;5.35;;;1.90;;
68858;SDS011;55864;49.238;8.092;2023-04-03T10:11:38;7.27;;;1.97;;
68858;SDS011;55864;49.238;8.092;2023-04-03T10:13:59;5.60;;;1.97;;
68858;SDS011;55864;49.238;8.092;2023-04-03T10:16:01;5.93;;;2.00;;
68858;SDS011;55864;49.238;8.092;2023-04-03T10:18:08;4.90;;;1.70;;
68858;SDS011;55864;49.238;8.092;2023-04-03T10:20:26;6.23;;;1.80;;
68858;SDS011;55864;49.238;8.092;2023-04-03T10:22:33;4.37;;;1.87;;
68858;SDS011;55864;49.238;8.092;2023-04-03T10:24:44;6.63;;;1.70;;
68858;SDS011;55864;49.238;8.092;2023-04-03T10:26:56;7.50;;;1.70;;
68858;SDS011;55864;49.238;8.092;2023-04-03T10:29:02;6.00;;;2.33;;
68858;SDS011;55864;49.238;8.092;2023-04-03T10:31:13;5.77;;;1.70;;
68858;SDS011;55864;49.238;8.092;2023-04-03T10:33:27;5.43;;;1.80;;
68858;SDS011;55864;49.238;8.092;2023-04-03T10:35:39;7.03;;;1.90;;
68858;SDS011;55864;49.238;8.092;2023-04-03T10:37:48;5.57;;;1.60;;
68858;SDS011;55864;49.238;8.092;2023-04-03T10:42:04;4.57;;;1.57;;
68858;SDS011;55864;49.238;8.092;2023-04-03T10:44:15;6.53;;;1.70;;
68858;SDS011;55864;49.238;8.092;2023-04-03T10:46:21;5.67;;;1.80;;
68858;SDS011;55864;49.238;8.092;2023-04-03T10:48:30;4.40;;;1.53;;
68858;SDS011;55864;49.238;8.092;2023-04-03T10:50:39;5.60;;;2.00;;
68858;SDS011;55864;49.238;8.092;2023-04-03T10:52:50;5.07;;;1.90;;
68858;SDS011;55864;49.238;8.092;2023-04-03T10:54:58;6.60;;;2.13;;
68858;SDS011;55864;49.238;8.092;2023-04-03T10:57:09;5.87;;;1.73;;
68858;SDS011;55864;49.238;8.092;2023-04-03T10:59:16;4.93;;;1.60;;
68858;SDS011;55864;49.238;8.092;2023-04-03T11:01:23;4.90;;;1.60;;
68858;SDS011;55864;49.238;8.092;2023-04-03T11:03:29;4.57;;;1.60;;
68858;SDS011;55864;49.238;8.092;2023-04-03T11:05:34;6.63;;;1.77;;
68858;SDS011;55864;49.238;8.092;2023-04-03T11:07:40;4.77;;;1.80;;
68858;SDS011;55864;49.238;8.092;2023-04-03T11:09:47;3.97;;;1.53;;
68858;SDS011;55864;49.238;8.092;2023-04-03T11:11:51;4.63;;;1.50;;
68858;SDS011;55864;49.238;8.092;2023-04-03T11:13:57;5.53;;;1.77;;
68858;SDS011;55864;49.238;8.092;2023-04-03T11:16:03;5.53;;;1.53;;
68858;SDS011;55864;49.238;8.092;2023-04-03T11:18:06;4.87;;;1.60;;
68858;SDS011;55864;49.238;8.092;2023-04-03T11:20:14;5.30;;;1.60;;
68858;SDS011;55864;49.238;8.092;2023-04-03T11:22:22;4.40;;;1.60;;
68858;SDS011;55864;49.238;8.092;2023-04-03T11:24:26;3.53;;;1.43;;
68858;SDS011;55864;49.238;8.092;2023-04-03T11:26:30;4.53;;;1.57;;
68858;SDS011;55864;49.238;8.092;2023-04-03T11:28:35;4.57;;;1.57;;
68858;SDS011;55864;49.238;8.092;2023-04-03T11:30:39;5.73;;;1.47;;
68858;SDS011;55864;49.238;8.092;2023-04-03T11:32:55;3.83;;;1.60;;
68858;SDS011;55864;49.238;8.092;2023-04-03T11:35:04;5.87;;;1.60;;
68858;SDS011;55864;49.238;8.092;2023-04-03T11:37:11;7.65;;;1.40;;
68858;SDS011;55864;49.238;8.092;2023-04-03T11:39:18;4.93;;;1.50;;
68858;SDS011;55864;49.238;8.092;2023-04-03T11:41:26;10.17;;;1.80;;
68858;SDS011;55864;49.238;8.092;2023-04-03T11:43:31;7.03;;;1.57;;
68858;SDS011;55864;49.238;8.092;2023-04-03T11:45:34;5.70;;;1.90;;
68858;SDS011;55864;49.238;8.092;2023-04-03T11:47:45;5.63;;;1.60;;
68858;SDS011;55864;49.238;8.092;2023-04-03T11:49:56;6.47;;;1.57;;
68858;SDS011;55864;49.238;8.092;2023-04-03T11:51:59;5.33;;;1.60;;
68858;SDS011;55864;49.238;8.092;2023-04-03T11:54:15;6.30;;;1.97;;
68858;SDS011;55864;49.238;8.092;2023-04-03T11:56:36;6.47;;;1.70;;
68858;SDS011;55864;49.238;8.092;2023-04-03T11:58:36;5.60;;;2.00;;
68858;SDS011;55864;49.238;8.092;2023-04-03T12:00:50;6.10;;;1.90;;
68858;SDS011;55864;49.238;8.092;2023-04-03T12:03:00;6.10;;;1.70;;
68858;SDS011;55864;49.238;8.092;2023-04-03T12:07:30;4.90;;;1.90;;
68858;SDS011;55864;49.238;8.092;2023-04-03T12:09:35;4.60;;;1.40;;
68858;SDS011;55864;49.238;8.092;2023-04-03T12:11:57;4.07;;;1.50;;
68858;SDS011;55864;49.238;8.092;2023-04-03T12:14:03;5.97;;;1.40;;
68858;SDS011;55864;49.238;8.092;2023-04-03T12:16:05;7.37;;;1.63;;
68858;SDS011;55864;49.238;8.092;2023-04-03T12:20:57;4.43;;;1.50;;
68858;SDS011;55864;49.238;8.092;2023-04-03T12:23:08;4.67;;;1.40;;
68858;SDS011;55864;49.238;8.092;2023-04-03T12:27:47;4.67;;;1.47;;
68858;SDS011;55864;49.238;8.092;2023-04-03T12:29:50;7.70;;;1.50;;
68858;SDS011;55864;49.238;8.092;2023-04-03T12:31:56;3.83;;;1.53;;
68858;SDS011;55864;49.238;8.092;2023-04-03T12:34:15;4.53;;;1.43;;
68858;SDS011;55864;49.238;8.092;2023-04-03T12:36:28;4.70;;;1.60;;